createdAt,value
2023-02-12T00:00:19.773Z,4.6
2023-02-12T00:01:27.654Z,4.7
2023-02-12T00:02:38.040Z,4.7
2023-02-12T00:03:44.969Z,4.7
2023-02-12T00:04:51.808Z,4.8
2023-02-12T00:05:58.921Z,4.7
2023-02-12T00:07:08.346Z,4.7
2023-02-12T00:08:16.636Z,4.7
2023-02-12T00:09:23.478Z,4.8
2023-02-12T00:10:30.405Z,4.8
2023-02-12T00:11:38.417Z,4.8
2023-02-12T00:12:46.076Z,4.8
2023-02-12T00:13:52.889Z,4.8
2023-02-12T00:14:59.774Z,4.8
2023-02-12T00:16:07.525Z,4.7
2023-02-12T00:17:14.357Z,4.7
2023-02-12T00:18:21.338Z,4.6
2023-02-12T00:19:29.274Z,4.6
2023-02-12T00:20:36.114Z,4.6
2023-02-12T00:21:44.103Z,4.5
2023-02-12T00:22:50.970Z,4.4
2023-02-12T00:23:57.813Z,4.4
2023-02-12T00:25:04.669Z,4.4
2023-02-12T00:26:11.753Z,4.5
2023-02-12T00:27:19.427Z,4.5
2023-02-12T00:28:27.287Z,4.6
2023-02-12T00:29:35.132Z,4.6
2023-02-12T00:30:41.987Z,4.5
2023-02-12T00:31:48.918Z,4.5
2023-02-12T00:32:55.725Z,4.4
2023-02-12T00:34:05.535Z,4.5
2023-02-12T00:35:13.802Z,4.5
2023-02-12T00:36:20.810Z,4.3
2023-02-12T00:37:27.806Z,4.4
2023-02-12T00:38:35.701Z,4.5
2023-02-12T00:39:42.563Z,4.5
2023-02-12T00:40:52.117Z,4.4
2023-02-12T00:41:58.992Z,4.4
2023-02-12T00:43:05.841Z,4.4
2023-02-12T00:44:14.541Z,4.3
2023-02-12T00:45:22.388Z,4.3
2023-02-12T00:46:31.538Z,4.3
2023-02-12T00:47:39.286Z,4.3
2023-02-12T00:48:47.222Z,4.3
2023-02-12T00:49:54.898Z,4.3
2023-02-12T00:51:02.643Z,4.3
2023-02-12T00:52:10.628Z,4.4
2023-02-12T00:53:17.542Z,4.5
2023-02-12T00:54:26.146Z,4.5
2023-02-12T00:55:33.080Z,4.4
2023-02-12T00:56:41.833Z,4.4
2023-02-12T00:57:48.879Z,4.3
2023-02-12T00:58:55.819Z,4.4
2023-02-12T01:00:02.653Z,4.4
2023-02-12T01:01:09.933Z,4.5
2023-02-12T01:02:17.607Z,4.5
2023-02-12T01:03:25.584Z,4.6
2023-02-12T01:04:33.431Z,4.7
2023-02-12T01:05:40.450Z,4.6
2023-02-12T01:06:47.987Z,4.6
2023-02-12T01:07:55.860Z,4.6
2023-02-12T01:09:04.617Z,4.6
2023-02-12T01:10:12.433Z,4.6
2023-02-12T01:11:19.394Z,4.5
2023-02-12T01:12:26.369Z,4.5
2023-02-12T01:13:33.169Z,4.6
2023-02-12T01:14:40.906Z,4.5
2023-02-12T01:15:47.883Z,4.6
2023-02-12T01:16:54.623Z,4.5
2023-02-12T01:18:02.368Z,4.4
2023-02-12T01:19:10.317Z,4.5
2023-02-12T01:20:17.544Z,4.4
2023-02-12T01:21:25.927Z,4.4
2023-02-12T01:22:32.802Z,4.4
2023-02-12T01:23:39.999Z,4.4
2023-02-12T01:24:47.895Z,4.5
2023-02-12T01:25:55.285Z,4.4
2023-02-12T01:27:03.183Z,4.4
2023-02-12T01:28:11.109Z,4.4
2023-02-12T01:29:17.924Z,4.5
2023-02-12T01:30:25.738Z,4.4
2023-02-12T01:31:32.937Z,4.5
2023-02-12T01:32:39.611Z,4.4
2023-02-12T01:33:46.475Z,4.4
2023-02-12T01:34:55.842Z,4.5
2023-02-12T01:36:03.662Z,4.6
2023-02-12T01:37:10.827Z,4.6
2023-02-12T01:38:19.430Z,4.5
2023-02-12T01:39:27.331Z,4.5
2023-02-12T01:40:38.052Z,4.5
2023-02-12T01:41:44.883Z,4.5
2023-02-12T01:42:51.719Z,4.6
2023-02-12T01:44:00.315Z,4.5
2023-02-12T01:45:17.490Z,4.6
2023-02-12T01:46:32.523Z,4.6
2023-02-12T01:47:39.827Z,4.5
2023-02-12T01:48:47.734Z,4.4
2023-02-12T01:49:54.946Z,4.5
2023-02-12T01:51:05.183Z,4.6
2023-02-12T01:52:12.071Z,4.5
2023-02-12T01:53:24.155Z,4.5
2023-02-12T01:54:32.109Z,4.7
2023-02-12T01:55:39.920Z,4.5
2023-02-12T01:56:46.776Z,4.5
2023-02-12T01:57:54.450Z,4.5
2023-02-12T01:59:02.208Z,4.5
2023-02-12T02:00:12.166Z,4.6
2023-02-12T02:01:21.696Z,4.6
2023-02-12T02:02:28.569Z,4.6
2023-02-12T02:03:35.594Z,4.5
2023-02-12T02:04:43.091Z,4.6
2023-02-12T02:05:51.708Z,4.5
2023-02-12T02:07:01.562Z,4.7
2023-02-12T02:08:08.523Z,4.5
2023-02-12T02:09:16.755Z,4.5
2023-02-12T02:10:23.602Z,4.5
2023-02-12T02:11:30.532Z,4.5
2023-02-12T02:12:42.501Z,4.4
2023-02-12T02:13:54.499Z,4.4
2023-02-12T02:15:07.424Z,4.4
2023-02-12T02:16:16.516Z,4.5
2023-02-12T02:17:23.317Z,4.5
2023-02-12T02:18:41.406Z,4.5
2023-02-12T02:20:00.563Z,4.5
2023-02-12T02:21:17.791Z,4.5
2023-02-12T02:22:33.595Z,4.7
2023-02-12T02:23:40.445Z,4.8
2023-02-12T02:24:53.594Z,4.8
2023-02-12T02:26:10.698Z,4.7
2023-02-12T02:27:17.693Z,4.7
2023-02-12T02:28:28.457Z,4.4
2023-02-12T02:29:45.630Z,4.5
2023-02-12T02:30:57.807Z,4.4
2023-02-12T02:32:11.026Z,4.6
2023-02-12T02:33:25.492Z,4.6
2023-02-12T02:34:40.526Z,4.5
2023-02-12T02:35:56.795Z,4.6
2023-02-12T02:37:15.298Z,4.6
2023-02-12T02:38:24.113Z,4.7
2023-02-12T02:39:33.788Z,4.8
2023-02-12T02:40:41.721Z,4.8
2023-02-12T02:41:56.597Z,4.7
2023-02-12T02:43:03.439Z,4.8
2023-02-12T02:44:15.437Z,4.7
2023-02-12T02:45:25.263Z,4.7
2023-02-12T02:46:35.138Z,4.8
2023-02-12T02:47:47.999Z,4.7
2023-02-12T02:48:59.244Z,4.7
2023-02-12T02:50:09.110Z,4.8
2023-02-12T02:51:15.964Z,4.6
2023-02-12T02:52:25.733Z,4.7
2023-02-12T02:53:35.327Z,4.7
2023-02-12T02:54:53.463Z,4.6
2023-02-12T02:56:00.348Z,4.6
2023-02-12T02:57:07.346Z,4.8
2023-02-12T02:58:19.388Z,4.9
2023-02-12T02:59:29.219Z,4.8
2023-02-12T03:00:36.250Z,4.9
2023-02-12T03:01:45.221Z,4.9
2023-02-12T03:02:57.526Z,4.9
2023-02-12T03:04:07.066Z,4.8
2023-02-12T03:05:19.016Z,4.8
2023-02-12T03:06:27.510Z,4.9
2023-02-12T03:07:44.275Z,4.8
2023-02-12T03:08:53.210Z,4.8
2023-02-12T03:10:00.155Z,4.6
2023-02-12T03:11:11.028Z,4.7
2023-02-12T03:12:17.882Z,4.8
2023-02-12T03:13:24.709Z,4.8
2023-02-12T03:14:31.659Z,4.9
2023-02-12T03:15:39.544Z,4.9
2023-02-12T03:16:51.558Z,5
2023-02-12T03:18:05.059Z,5
2023-02-12T03:19:11.902Z,5
2023-02-12T03:20:20.196Z,5
2023-02-12T03:21:29.742Z,5
2023-02-12T03:22:46.842Z,5.1
2023-02-12T03:23:57.359Z,5
2023-02-12T03:25:04.206Z,4.9
2023-02-12T03:26:16.172Z,5
2023-02-12T03:27:24.924Z,4.9
2023-02-12T03:28:37.051Z,5
2023-02-12T03:29:43.760Z,5
2023-02-12T03:30:51.515Z,5
2023-02-12T03:32:06.156Z,5
2023-02-12T03:33:18.365Z,5
2023-02-12T03:34:26.226Z,4.9
2023-02-12T03:35:39.106Z,4.9
2023-02-12T03:36:47.924Z,5
2023-02-12T03:37:57.885Z,5
2023-02-12T03:39:06.840Z,4.9
2023-02-12T03:40:16.842Z,5
2023-02-12T03:41:23.891Z,4.9
2023-02-12T03:42:31.622Z,4.9
2023-02-12T03:43:48.785Z,5.1
2023-02-12T03:44:57.290Z,5
2023-02-12T03:46:15.400Z,5
2023-02-12T03:47:32.556Z,4.9
2023-02-12T03:48:48.574Z,4.8
2023-02-12T03:50:03.730Z,4.7
2023-02-12T03:51:18.459Z,4.8
2023-02-12T03:52:33.187Z,4.8
2023-02-12T03:53:40.054Z,4.7
2023-02-12T03:54:47.907Z,4.7
2023-02-12T03:55:55.002Z,4.7
2023-02-12T03:57:09.589Z,4.8
2023-02-12T03:58:21.784Z,4.8
2023-02-12T03:59:28.769Z,4.7
2023-02-12T04:00:35.569Z,4.8
2023-02-12T04:01:43.279Z,4.8
2023-02-12T04:02:49.962Z,4.6
2023-02-12T04:03:58.078Z,4.6
2023-02-12T04:05:07.753Z,4.7
2023-02-12T04:06:19.700Z,4.8
2023-02-12T04:07:26.604Z,4.5
2023-02-12T04:08:34.473Z,4.6
2023-02-12T04:09:41.401Z,4.6
2023-02-12T04:10:49.310Z,4.7
2023-02-12T04:11:57.003Z,4.7
2023-02-12T04:13:08.995Z,4.7
2023-02-12T04:14:23.910Z,4.6
2023-02-12T04:15:37.064Z,4.6
2023-02-12T04:16:47.928Z,4.6
2023-02-12T04:17:58.332Z,4.7
2023-02-12T04:19:09.430Z,4.8
2023-02-12T04:20:16.264Z,4.7
2023-02-12T04:21:32.115Z,4.6
2023-02-12T04:22:46.792Z,4.6
2023-02-12T04:24:03.961Z,4.6
2023-02-12T04:25:21.356Z,4.7
2023-02-12T04:26:33.470Z,4.6
2023-02-12T04:27:40.658Z,4.7
2023-02-12T04:28:55.750Z,4.8
2023-02-12T04:30:12.903Z,4.8
2023-02-12T04:31:26.137Z,4.7
2023-02-12T04:32:36.561Z,4.6
2023-02-12T04:33:51.244Z,4.7
2023-02-12T04:35:04.145Z,4.7
2023-02-12T04:36:17.213Z,4.7
2023-02-12T04:37:24.167Z,4.7
2023-02-12T04:38:39.490Z,4.6
2023-02-12T04:39:47.479Z,4.6
2023-02-12T04:40:55.341Z,4.6
2023-02-12T04:42:02.313Z,4.6
2023-02-12T04:43:09.181Z,4.6
2023-02-12T04:44:16.795Z,4.6
2023-02-12T04:45:26.733Z,4.6
2023-02-12T04:46:33.699Z,4.6
2023-02-12T04:47:40.467Z,4.7
2023-02-12T04:48:49.369Z,4.6
2023-02-12T04:49:59.646Z,4.5
2023-02-12T04:51:06.507Z,4.5
2023-02-12T04:52:13.349Z,4.6
2023-02-12T04:53:21.644Z,4.7
2023-02-12T04:54:31.859Z,4.6
2023-02-12T04:55:38.806Z,4.7
2023-02-12T04:56:46.584Z,4.7
2023-02-12T04:57:53.572Z,4.7
2023-02-12T04:59:04.324Z,4.7
2023-02-12T05:00:11.300Z,4.7
2023-02-12T05:01:18.366Z,4.7
2023-02-12T05:02:27.094Z,4.7
2023-02-12T05:03:33.981Z,4.7
2023-02-12T05:04:40.776Z,4.7
2023-02-12T05:05:50.144Z,4.7
2023-02-12T05:06:57.031Z,4.8
2023-02-12T05:08:06.792Z,4.8
2023-02-12T05:09:13.787Z,4.9
2023-02-12T05:10:20.627Z,4.8
2023-02-12T05:11:27.419Z,4.7
2023-02-12T05:12:34.310Z,4.7
2023-02-12T05:13:41.172Z,4.7
2023-02-12T05:14:49.005Z,4.7
2023-02-12T05:15:56.110Z,4.7
2023-02-12T05:17:03.484Z,4.7
2023-02-12T05:18:10.277Z,4.8
2023-02-12T05:19:17.132Z,4.8
2023-02-12T05:20:25.729Z,4.8
2023-02-12T05:21:33.657Z,4.7
2023-02-12T05:22:42.095Z,4.7
2023-02-12T05:23:50.029Z,4.7
2023-02-12T05:24:57.800Z,4.7
2023-02-12T05:26:04.625Z,4.8
2023-02-12T05:27:11.649Z,4.9
2023-02-12T05:28:19.552Z,4.9
2023-02-12T05:29:26.499Z,4.9
2023-02-12T05:30:34.766Z,4.8
2023-02-12T05:31:41.810Z,4.8
2023-02-12T05:32:48.625Z,4.8
2023-02-12T05:33:56.905Z,4.9
2023-02-12T05:35:03.896Z,4.9
2023-02-12T05:36:14.035Z,4.8
2023-02-12T05:37:24.052Z,4.8
2023-02-12T05:38:31.972Z,4.7
2023-02-12T05:39:38.982Z,4.8
2023-02-12T05:40:45.849Z,4.8
2023-02-12T05:41:52.991Z,4.8
2023-02-12T05:43:00.090Z,4.9
2023-02-12T05:44:09.977Z,4.9
2023-02-12T05:45:16.844Z,4.8
2023-02-12T05:46:23.719Z,4.7
2023-02-12T05:47:33.519Z,4.8
2023-02-12T05:48:40.367Z,4.8
2023-02-12T05:49:48.816Z,4.8
2023-02-12T05:50:56.742Z,4.8
2023-02-12T05:52:09.622Z,4.8
2023-02-12T05:53:18.130Z,4.8
2023-02-12T05:54:24.719Z,4.8
2023-02-12T05:55:31.540Z,4.8
2023-02-12T05:56:38.508Z,4.8
2023-02-12T05:57:48.648Z,4.8
2023-02-12T05:58:57.260Z,4.9
2023-02-12T06:00:06.966Z,4.8
2023-02-12T06:01:14.060Z,4.9
2023-02-12T06:02:23.808Z,4.8
2023-02-12T06:03:32.797Z,4.8
2023-02-12T06:04:40.607Z,4.8
2023-02-12T06:05:47.464Z,4.8
2023-02-12T06:06:54.325Z,4.7
2023-02-12T06:08:01.264Z,4.7
2023-02-12T06:09:08.174Z,4.7
2023-02-12T06:10:15.963Z,4.8
2023-02-12T06:11:23.007Z,4.8
2023-02-12T06:12:30.857Z,4.8
2023-02-12T06:13:40.873Z,4.8
2023-02-12T06:14:47.867Z,4.8
2023-02-12T06:15:55.339Z,4.8
2023-02-12T06:17:01.855Z,4.8
2023-02-12T06:18:10.014Z,4.8
2023-02-12T06:19:17.763Z,4.7
2023-02-12T06:20:25.001Z,4.7
2023-02-12T06:21:31.956Z,4.6
2023-02-12T06:22:38.784Z,4.6
2023-02-12T06:23:46.060Z,4.6
2023-02-12T06:24:57.106Z,4.7
2023-02-12T06:26:04.002Z,4.7
2023-02-12T06:27:10.882Z,4.7
2023-02-12T06:28:17.921Z,4.7
2023-02-12T06:29:24.809Z,4.8
2023-02-12T06:30:31.736Z,4.7
2023-02-12T06:31:39.465Z,4.7
2023-02-12T06:32:46.209Z,4.7
2023-02-12T06:33:54.008Z,4.7
2023-02-12T06:35:02.461Z,4.8
2023-02-12T06:36:13.033Z,4.7
2023-02-12T06:37:19.958Z,4.7
2023-02-12T06:38:27.799Z,4.7
2023-02-12T06:39:34.821Z,4.7
2023-02-12T06:40:41.888Z,4.7
2023-02-12T06:41:53.960Z,4.7
2023-02-12T06:43:01.151Z,4.7
2023-02-12T06:44:08.875Z,4.7
2023-02-12T06:45:16.675Z,4.7
2023-02-12T06:46:23.642Z,4.7
2023-02-12T06:47:30.444Z,4.8
2023-02-12T06:48:37.416Z,4.8
2023-02-12T06:49:45.739Z,4.7
2023-02-12T06:50:52.620Z,4.7
2023-02-12T06:52:02.922Z,4.8
2023-02-12T06:53:07.192Z,4.8
2023-02-12T06:54:13.980Z,4.8
2023-02-12T06:55:21.824Z,4.8
2023-02-12T06:56:32.096Z,4.8
2023-02-12T06:57:40.505Z,4.8
2023-02-12T06:58:48.395Z,4.8
2023-02-12T06:59:58.993Z,4.8
2023-02-12T07:01:07.012Z,4.8
2023-02-12T07:02:18.865Z,4.8
2023-02-12T07:03:26.704Z,4.8
2023-02-12T07:04:35.380Z,4.8
2023-02-12T07:05:44.216Z,4.8
2023-02-12T07:06:51.085Z,4.8
2023-02-12T07:07:57.845Z,4.8
2023-02-12T07:09:07.382Z,4.8
2023-02-12T07:10:14.293Z,4.8
2023-02-12T07:11:23.201Z,4.8
2023-02-12T07:12:30.276Z,4.8
2023-02-12T07:13:37.210Z,4.8
2023-02-12T07:14:44.975Z,4.8
2023-02-12T07:15:51.983Z,4.8
2023-02-12T07:16:58.801Z,4.7
2023-02-12T07:18:05.576Z,4.7
2023-02-12T07:19:12.448Z,4.7
2023-02-12T07:20:19.220Z,4.8
2023-02-12T07:21:27.095Z,4.8
2023-02-12T07:22:37.412Z,4.8
2023-02-12T07:23:45.929Z,4.7
2023-02-12T07:24:52.992Z,4.7
2023-02-12T07:26:00.956Z,4.8
2023-02-12T07:27:08.162Z,4.9
2023-02-12T07:28:17.091Z,4.9
2023-02-12T07:29:24.209Z,4.9
2023-02-12T07:30:32.621Z,4.9
2023-02-12T07:31:40.936Z,4.9
2023-02-12T07:32:49.075Z,4.9
2023-02-12T07:33:58.921Z,4.9
2023-02-12T07:35:05.964Z,4.9
2023-02-12T07:36:13.146Z,4.9
2023-02-12T07:37:21.217Z,4.9
2023-02-12T07:38:29.135Z,4.9
2023-02-12T07:39:36.962Z,4.9
2023-02-12T07:40:50.539Z,4.9
2023-02-12T07:41:58.432Z,5
2023-02-12T07:43:07.141Z,4.9
2023-02-12T07:44:14.083Z,5
2023-02-12T07:45:20.907Z,5
2023-02-12T07:46:28.585Z,5
2023-02-12T07:47:35.486Z,4.9
2023-02-12T07:48:46.464Z,5
2023-02-12T07:49:53.920Z,5
2023-02-12T07:51:02.408Z,5
2023-02-12T07:52:11.540Z,4.8
2023-02-12T07:53:17.710Z,4.9
2023-02-12T07:54:24.529Z,4.9
2023-02-12T07:55:31.340Z,5
2023-02-12T07:56:39.980Z,5
2023-02-12T07:57:46.797Z,5.1
2023-02-12T07:58:53.650Z,5.1
2023-02-12T08:00:01.423Z,5
2023-02-12T08:01:08.585Z,5
2023-02-12T08:02:17.520Z,5
2023-02-12T08:03:24.266Z,5
2023-02-12T08:04:31.280Z,4.8
2023-02-12T08:05:38.104Z,4.9
2023-02-12T08:06:45.065Z,4.9
2023-02-12T08:07:51.941Z,4.8
2023-02-12T08:08:58.936Z,4.9
2023-02-12T08:10:05.784Z,4.9
2023-02-12T08:11:14.766Z,4.8
2023-02-12T08:12:21.698Z,4.9
2023-02-12T08:13:30.260Z,4.8
2023-02-12T08:14:37.226Z,4.9
2023-02-12T08:15:45.141Z,4.9
2023-02-12T08:16:52.080Z,4.9
2023-02-12T08:17:59.802Z,4.8
2023-02-12T08:19:16.817Z,4.7
2023-02-12T08:20:14.689Z,4.4
2023-02-12T08:21:21.692Z,4.5
2023-02-12T08:22:28.629Z,4.7
2023-02-12T08:23:35.652Z,4.5
2023-02-12T08:24:45.189Z,4.5
2023-02-12T08:25:52.059Z,4.7
2023-02-12T08:27:00.154Z,4.7
2023-02-12T08:28:08.959Z,4.7
2023-02-12T08:29:15.757Z,4.7
2023-02-12T08:30:22.629Z,4.6
2023-02-12T08:31:29.595Z,4.7
2023-02-12T08:32:36.440Z,4.7
2023-02-12T08:33:43.306Z,4.7
2023-02-12T08:34:50.233Z,4.7
2023-02-12T08:35:59.646Z,4.6
2023-02-12T08:37:09.936Z,4.6
2023-02-12T08:38:18.249Z,4.7
2023-02-12T08:39:27.062Z,4.6
2023-02-12T08:40:34.129Z,4.7
2023-02-12T08:41:42.918Z,4.3
2023-02-12T08:42:49.903Z,4.5
2023-02-12T08:43:58.225Z,4.5
2023-02-12T08:45:07.999Z,4.6
2023-02-12T08:46:16.154Z,4.7
2023-02-12T08:47:23.028Z,4.7
2023-02-12T08:48:32.140Z,4.8
2023-02-12T08:49:39.694Z,4.8
2023-02-12T08:50:46.578Z,4.8
2023-02-12T08:51:53.480Z,4.8
2023-02-12T08:53:00.316Z,4.4
2023-02-12T08:54:07.327Z,4.6
2023-02-12T08:55:14.368Z,4.5
2023-02-12T08:56:21.291Z,4.5
2023-02-12T08:57:28.289Z,4.5
2023-02-12T08:58:35.092Z,4.7
2023-02-12T08:59:41.959Z,4.6
2023-02-12T09:00:48.795Z,4.5
2023-02-12T09:01:55.999Z,4.4
2023-02-12T09:03:02.970Z,4.3
2023-02-12T09:04:09.871Z,4.4
2023-02-12T09:05:16.799Z,4.5
2023-02-12T09:06:23.816Z,4.4
2023-02-12T09:07:30.702Z,4.4
2023-02-12T09:08:37.625Z,4.5
2023-02-12T09:09:44.428Z,4.6
2023-02-12T09:10:51.351Z,4.7
2023-02-12T09:11:58.182Z,4.8
2023-02-12T09:13:05.068Z,4.8
2023-02-12T09:14:11.902Z,4.6
2023-02-12T09:15:18.825Z,4.7
2023-02-12T09:16:25.667Z,4.6
2023-02-12T09:17:32.428Z,4.7
2023-02-12T09:18:39.332Z,4.7
2023-02-12T09:19:46.190Z,4.7
2023-02-12T09:20:53.030Z,4.7
2023-02-12T09:21:59.893Z,4.5
2023-02-12T09:23:06.822Z,4.6
2023-02-12T09:24:13.775Z,4.7
2023-02-12T09:25:20.659Z,4.7
2023-02-12T09:26:27.743Z,4.6
2023-02-12T09:27:34.717Z,4.7
2023-02-12T09:28:41.672Z,4.6
2023-02-12T09:29:48.587Z,4.7
2023-02-12T09:30:55.461Z,4.7
2023-02-12T09:32:02.323Z,4.7
2023-02-12T09:33:09.277Z,4.6
2023-02-12T09:34:16.336Z,4.6
2023-02-12T09:35:23.199Z,4.7
2023-02-12T09:36:30.105Z,4.8
2023-02-12T09:37:36.992Z,4.8
2023-02-12T09:38:43.863Z,4.8
2023-02-12T09:39:51.293Z,4.8
2023-02-12T09:40:57.619Z,4.8
2023-02-12T09:42:14.653Z,4.6
2023-02-12T09:43:24.402Z,4.7
2023-02-12T09:44:33.944Z,4.8
2023-02-12T09:45:45.837Z,4.9
2023-02-12T09:47:00.371Z,4.9
2023-02-12T09:48:17.319Z,4.9
2023-02-12T09:49:30.199Z,4.9
2023-02-12T09:50:47.154Z,4.9
2023-02-12T09:51:56.886Z,5
2023-02-12T09:53:03.874Z,5
2023-02-12T09:54:10.729Z,5
2023-02-12T09:55:17.603Z,4.9
2023-02-12T09:56:24.417Z,4.9
2023-02-12T09:57:31.406Z,4.7
2023-02-12T09:58:38.348Z,4.8
2023-02-12T09:59:50.320Z,4.9
2023-02-12T10:01:02.223Z,4.8
2023-02-12T10:02:17.040Z,4.8
2023-02-12T10:03:28.808Z,4.8
2023-02-12T10:04:35.661Z,4.9
2023-02-12T10:05:44.685Z,4.8
2023-02-12T10:06:54.457Z,4.8
2023-02-12T10:08:01.528Z,4.9
2023-02-12T10:09:18.569Z,4.8
2023-02-12T10:10:33.029Z,4.8
2023-02-12T10:11:50.007Z,4.9
2023-02-12T10:12:56.940Z,4.9
2023-02-12T10:14:11.802Z,4.8
2023-02-12T10:15:23.697Z,4.8
2023-02-12T10:16:33.222Z,4.9
2023-02-12T10:17:44.424Z,4.9
2023-02-12T10:18:53.554Z,4.9
2023-02-12T10:20:06.343Z,4.8
2023-02-12T10:21:18.376Z,4.8
2023-02-12T10:22:31.068Z,4.7
2023-02-12T10:23:45.727Z,4.7
2023-02-12T10:24:57.664Z,4.8
2023-02-12T10:26:12.298Z,4.9
2023-02-12T10:27:24.320Z,4.9
2023-02-12T10:28:41.357Z,5
2023-02-12T10:29:52.474Z,4.8
2023-02-12T10:30:59.470Z,5
2023-02-12T10:32:06.357Z,5.1
2023-02-12T10:33:21.404Z,5
2023-02-12T10:34:34.328Z,5
2023-02-12T10:35:41.384Z,5.1
2023-02-12T10:36:55.827Z,4.8
2023-02-12T10:38:13.291Z,4.8
2023-02-12T10:39:23.341Z,4.8
2023-02-12T10:40:33.183Z,4.9
2023-02-12T10:41:43.470Z,4.9
2023-02-12T10:42:55.500Z,5
2023-02-12T10:44:08.804Z,5
2023-02-12T10:45:19.848Z,5.1
2023-02-12T10:46:32.123Z,5.1
2023-02-12T10:47:38.920Z,5.1
2023-02-12T10:48:45.804Z,5.1
2023-02-12T10:49:52.749Z,5.2
2023-02-12T10:51:04.643Z,5.2
2023-02-12T10:52:11.475Z,5.1
2023-02-12T10:53:28.464Z,5
2023-02-12T10:54:37.955Z,5.1
2023-02-12T10:55:47.892Z,5.1
2023-02-12T10:56:57.555Z,5.2
2023-02-12T10:58:09.716Z,5.2
2023-02-12T10:59:16.603Z,5.2
2023-02-12T11:00:26.144Z,5.2
2023-02-12T11:01:37.708Z,5.3
2023-02-12T11:02:44.655Z,5.1
2023-02-12T11:04:01.812Z,5.1
2023-02-12T11:05:18.909Z,5.2
2023-02-12T11:06:26.747Z,5.3
2023-02-12T11:07:33.578Z,5.4
2023-02-12T11:08:40.534Z,5.4
2023-02-12T11:09:47.320Z,5.4
2023-02-12T11:10:54.279Z,5.5
2023-02-12T11:12:11.034Z,5.5
2023-02-12T11:13:20.730Z,5.4
2023-02-12T11:14:30.532Z,5
2023-02-12T11:15:37.690Z,5
2023-02-12T11:16:49.646Z,5
2023-02-12T11:17:56.511Z,5.2
2023-02-12T11:19:06.263Z,5.4
2023-02-12T11:20:20.982Z,5.4
2023-02-12T11:21:28.979Z,5.4
2023-02-12T11:22:35.960Z,5.5
2023-02-12T11:23:42.955Z,5.5
2023-02-12T11:24:49.846Z,5.5
2023-02-12T11:25:57.120Z,5.5
2023-02-12T11:27:08.867Z,5.6
2023-02-12T11:28:16.607Z,5.6
2023-02-12T11:29:24.399Z,5.6
2023-02-12T11:30:31.254Z,5.6
2023-02-12T11:31:42.205Z,5.4
2023-02-12T11:32:48.994Z,5.6
2023-02-12T11:33:55.917Z,5.6
2023-02-12T11:35:15.665Z,5.7
2023-02-12T11:36:25.521Z,5.6
2023-02-12T11:37:32.774Z,5.6
2023-02-12T11:38:40.278Z,5.6
2023-02-12T11:39:54.844Z,5.6
2023-02-12T11:41:02.531Z,5.6
2023-02-12T11:42:14.472Z,5.7
2023-02-12T11:43:23.996Z,5.7
2023-02-12T11:44:31.077Z,5.3
2023-02-12T11:45:40.673Z,5.3
2023-02-12T11:46:53.758Z,5.3
2023-02-12T11:48:04.035Z,5.1
2023-02-12T11:49:25.724Z,5.1
2023-02-12T11:50:34.353Z,5.1
2023-02-12T11:51:41.354Z,5
2023-02-12T11:52:51.384Z,5
2023-02-12T11:54:01.410Z,5.4
2023-02-12T11:55:08.578Z,5.6
2023-02-12T11:56:25.662Z,5.6
2023-02-12T11:57:43.513Z,5.7
2023-02-12T11:58:50.481Z,5.8
2023-02-12T11:59:57.472Z,5.6
2023-02-12T12:01:04.408Z,5.6
2023-02-12T12:02:15.932Z,5.7
2023-02-12T12:03:27.424Z,5.7
2023-02-12T12:04:41.647Z,5.8
2023-02-12T12:05:48.593Z,5.8
2023-02-12T12:06:55.676Z,5.9
2023-02-12T12:08:08.836Z,5.9
2023-02-12T12:09:15.827Z,5.9
2023-02-12T12:10:27.876Z,5.8
2023-02-12T12:11:43.011Z,5.6
2023-02-12T12:12:55.123Z,5.2
2023-02-12T12:14:02.048Z,5.1
2023-02-12T12:15:14.135Z,5.3
2023-02-12T12:16:29.724Z,5.5
2023-02-12T12:17:41.715Z,5.5
2023-02-12T12:18:56.475Z,5.7
2023-02-12T12:20:13.543Z,5.7
2023-02-12T12:21:20.732Z,5.7
2023-02-12T12:22:38.739Z,5.6
2023-02-12T12:23:53.735Z,5.8
2023-02-12T12:25:06.419Z,5.7
2023-02-12T12:26:26.030Z,5.6
2023-02-12T12:27:32.986Z,5.4
2023-02-12T12:28:48.053Z,5.8
2023-02-12T12:30:00.002Z,5.9
2023-02-12T12:31:07.305Z,6
2023-02-12T12:32:16.761Z,6.1
2023-02-12T12:33:24.263Z,6.2
2023-02-12T12:34:39.204Z,5.9
2023-02-12T12:35:46.403Z,6.1
2023-02-12T12:37:01.019Z,6
2023-02-12T12:38:13.068Z,5.7
2023-02-12T12:39:23.038Z,5.7
2023-02-12T12:40:30.129Z,6
2023-02-12T12:41:42.692Z,5.8
2023-02-12T12:42:59.788Z,6
2023-02-12T12:44:06.748Z,5.7
2023-02-12T12:45:18.813Z,5.7
2023-02-12T12:46:34.472Z,5.9
2023-02-12T12:47:51.588Z,6
2023-02-12T12:49:06.315Z,6
2023-02-12T12:50:13.238Z,6
2023-02-12T12:51:27.902Z,5.8
2023-02-12T12:52:43.695Z,5.8
2023-02-12T12:53:58.629Z,5.8
2023-02-12T12:55:12.717Z,5.9
2023-02-12T12:56:25.781Z,5.8
2023-02-12T12:57:37.828Z,5.9
2023-02-12T12:58:49.825Z,5.9
2023-02-12T13:00:08.204Z,5.8
2023-02-12T13:01:20.955Z,6
2023-02-12T13:02:35.940Z,6.1
2023-02-12T13:03:55.974Z,6.3
2023-02-12T13:05:10.954Z,6.4
2023-02-12T13:06:28.041Z,6.2
2023-02-12T13:07:45.838Z,6.1
2023-02-12T13:08:57.862Z,5.9
2023-02-12T13:10:09.898Z,6
2023-02-12T13:11:28.616Z,6.2
2023-02-12T13:12:39.043Z,5.8
2023-02-12T13:13:46.086Z,5.8
2023-02-12T13:14:53.155Z,5.9
2023-02-12T13:16:05.120Z,5.7
2023-02-12T13:17:22.383Z,5.9
2023-02-12T13:18:30.306Z,6.1
2023-02-12T13:19:48.160Z,6.2
2023-02-12T13:21:03.358Z,6.1
2023-02-12T13:22:18.219Z,6.4
2023-02-12T13:23:25.199Z,6.5
2023-02-12T13:24:40.129Z,6.2
2023-02-12T13:25:47.928Z,5.9
2023-02-12T13:27:05.015Z,6
2023-02-12T13:28:18.089Z,6
2023-02-12T13:29:28.001Z,6
2023-02-12T13:30:39.995Z,5.9
2023-02-12T13:31:50.132Z,5.7
2023-02-12T13:32:59.620Z,5.6
2023-02-12T13:34:09.601Z,5.9
2023-02-12T13:35:16.553Z,5.7
2023-02-12T13:36:23.477Z,5.9
2023-02-12T13:37:30.781Z,5.9
2023-02-12T13:38:45.386Z,5.9
2023-02-12T13:39:59.996Z,6
2023-02-12T13:41:06.936Z,5.9
2023-02-12T13:42:14.031Z,5.8
2023-02-12T13:43:32.035Z,6
2023-02-12T13:44:49.226Z,6.1
2023-02-12T13:46:01.945Z,6.1
2023-02-12T13:47:11.723Z,6.3
2023-02-12T13:48:21.552Z,6.3
2023-02-12T13:49:33.557Z,6
2023-02-12T13:50:46.383Z,5.9
2023-02-12T13:52:01.127Z,6
2023-02-12T13:53:13.682Z,6
2023-02-12T13:54:26.138Z,6.1
2023-02-12T13:55:33.029Z,6
2023-02-12T13:56:43.039Z,6
2023-02-12T13:57:53.031Z,5.9
2023-02-12T13:59:10.066Z,5.9
2023-02-12T14:00:27.122Z,5.9
2023-02-12T14:01:46.982Z,6.2
2023-02-12T14:02:51.552Z,6.2
2023-02-12T14:03:58.978Z,6.1
2023-02-12T14:05:15.963Z,6.1
2023-02-12T14:06:28.002Z,6
2023-02-12T14:07:35.363Z,5.9
2023-02-12T14:08:45.155Z,5.8
2023-02-12T14:09:58.053Z,5.9
2023-02-12T14:11:05.078Z,6.1
2023-02-12T14:12:16.226Z,6.1
2023-02-12T14:13:28.547Z,6.1
2023-02-12T14:14:35.458Z,6.3
2023-02-12T14:15:42.471Z,6.4
2023-02-12T14:16:54.513Z,6.1
2023-02-12T14:18:04.052Z,6
2023-02-12T14:19:11.065Z,6
2023-02-12T14:20:29.259Z,6.1
2023-02-12T14:21:39.497Z,5.9
2023-02-12T14:22:46.464Z,5.9
2023-02-12T14:23:54.259Z,5.9
2023-02-12T14:25:04.017Z,5.7
2023-02-12T14:26:21.106Z,5.6
2023-02-12T14:27:28.010Z,5.9
2023-02-12T14:28:40.104Z,5.9
2023-02-12T14:29:55.061Z,6
2023-02-12T14:31:10.356Z,6.2
2023-02-12T14:32:22.267Z,6.1
2023-02-12T14:33:39.590Z,5.8
2023-02-12T14:34:46.989Z,6
2023-02-12T14:35:54.539Z,6
2023-02-12T14:37:06.219Z,6
2023-02-12T14:38:18.826Z,6
2023-02-12T14:39:31.687Z,6.1
2023-02-12T14:40:38.807Z,6
2023-02-12T14:41:48.514Z,6
2023-02-12T14:42:55.533Z,6
2023-02-12T14:44:02.654Z,6.2
2023-02-12T14:45:19.896Z,6.2
2023-02-12T14:46:31.959Z,6.2
2023-02-12T14:47:38.861Z,6.2
2023-02-12T14:48:48.328Z,6.2
2023-02-12T14:49:55.222Z,6.2
2023-02-12T14:51:07.978Z,6.2
2023-02-12T14:52:17.495Z,6
2023-02-12T14:53:34.524Z,6
2023-02-12T14:54:41.427Z,6
2023-02-12T14:55:56.781Z,6
2023-02-12T14:57:03.469Z,6.1
2023-02-12T14:58:10.539Z,5.7
2023-02-12T14:59:17.477Z,5.8
2023-02-12T15:00:24.485Z,5.9
2023-02-12T15:01:39.202Z,5.9
2023-02-12T15:02:46.085Z,5.8
2023-02-12T15:04:01.657Z,5.9
2023-02-12T15:05:08.584Z,5.9
2023-02-12T15:06:20.718Z,5.8
2023-02-12T15:07:31.167Z,5.9
2023-02-12T15:08:44.005Z,6
2023-02-12T15:09:55.925Z,6
2023-02-12T15:11:07.971Z,5.9
2023-02-12T15:12:20.256Z,5.9
2023-02-12T15:13:35.086Z,5.9
2023-02-12T15:14:46.965Z,5.9
2023-02-12T15:15:55.937Z,5.9
2023-02-12T15:17:12.914Z,5.9
2023-02-12T15:18:24.424Z,5.8
2023-02-12T15:19:32.526Z,5.7
2023-02-12T15:20:52.413Z,5.7
2023-02-12T15:22:01.462Z,5.8
2023-02-12T15:23:19.013Z,5.9
2023-02-12T15:24:33.486Z,5.8
2023-02-12T15:25:40.366Z,5.8
2023-02-12T15:26:47.369Z,5.8
2023-02-12T15:27:54.341Z,5.8
2023-02-12T15:29:09.358Z,5.8
2023-02-12T15:30:26.185Z,5.8
2023-02-12T15:31:31.146Z,5.8
2023-02-12T15:32:38.071Z,5.8
2023-02-12T15:33:45.066Z,5.8
2023-02-12T15:34:51.990Z,5.8
2023-02-12T15:35:59.299Z,5.8
2023-02-12T15:37:05.746Z,5.8
2023-02-12T15:38:12.620Z,5.8
2023-02-12T15:39:24.510Z,5.8
2023-02-12T15:40:32.236Z,5.8
2023-02-12T15:41:39.178Z,5.8
2023-02-12T15:42:46.174Z,5.9
2023-02-12T15:43:58.294Z,5.9
2023-02-12T15:45:10.211Z,5.9
2023-02-12T15:46:18.034Z,5.9
2023-02-12T15:47:24.841Z,5.9
2023-02-12T15:48:32.592Z,5.9
2023-02-12T15:49:39.471Z,5.8
2023-02-12T15:50:46.793Z,5.8
2023-02-12T15:51:59.148Z,5.8
2023-02-12T15:53:06.040Z,5.8
2023-02-12T15:54:13.363Z,5.8
2023-02-12T15:55:22.582Z,5.7
2023-02-12T15:56:29.679Z,5.7
2023-02-12T15:57:39.400Z,5.7
2023-02-12T15:58:46.442Z,5.7
2023-02-12T15:59:58.955Z,5.6
2023-02-12T16:01:09.783Z,5.6
2023-02-12T16:02:20.003Z,5.6
2023-02-12T16:03:29.964Z,5.5